sensor_id;sensor_type;location;lat;lon;timestamp;P1;durP1;ratioP1;P2;durP2;ratioP2
23565;SDS011;22140;48.988;8.544;2023-03-11T00:02:04;3.50;;;1.13;;
23565;SDS011;22140;48.988;8.544;2023-03-11T00:07:06;3.72;;;0.90;;
23565;SDS011;22140;48.988;8.544;2023-03-11T00:12:08;4.20;;;0.97;;
23565;SDS011;22140;48.988;8.544;2023-03-11T00:17:09;3.92;;;0.90;;
23565;SDS011;22140;48.988;8.544;2023-03-11T00:22:10;4.13;;;0.90;;
23565;SDS011;22140;48.988;8.544;2023-03-11T00:27:12;5.60;;;0.90;;
23565;SDS011;22140;48.988;8.544;2023-03-11T00:32:14;3.95;;;0.95;;
23565;SDS011;22140;48.988;8.544;2023-03-11T00:37:16;6.13;;;1.10;;
23565;SDS011;22140;48.988;8.544;2023-03-11T00:42:17;5.88;;;0.90;;
23565;SDS011;22140;48.988;8.544;2023-03-11T00:47:18;4.53;;;0.95;;
23565;SDS011;22140;48.988;8.544;2023-03-11T00:52:20;4.10;;;1.00;;
23565;SDS011;22140;48.988;8.544;2023-03-11T00:57:21;4.78;;;1.10;;
23565;SDS011;22140;48.988;8.544;2023-03-11T01:02:22;4.60;;;0.90;;
23565;SDS011;22140;48.988;8.544;2023-03-11T01:07:23;4.82;;;0.98;;
23565;SDS011;22140;48.988;8.544;2023-03-11T01:12:25;6.50;;;1.10;;
23565;SDS011;22140;48.988;8.544;2023-03-11T01:17:26;4.37;;;0.80;;
23565;SDS011;22140;48.988;8.544;2023-03-11T01:22:27;5.22;;;1.08;;
23565;SDS011;22140;48.988;8.544;2023-03-11T01:27:29;5.83;;;1.13;;
23565;SDS011;22140;48.988;8.544;2023-03-11T01:32:31;9.02;;;1.90;;
23565;SDS011;22140;48.988;8.544;2023-03-11T01:37:32;20.63;;;4.68;;
23565;SDS011;22140;48.988;8.544;2023-03-11T01:42:33;5.70;;;1.13;;
23565;SDS011;22140;48.988;8.544;2023-03-11T01:47:38;7.68;;;0.90;;
23565;SDS011;22140;48.988;8.544;2023-03-11T01:52:40;9.03;;;1.07;;
23565;SDS011;22140;48.988;8.544;2023-03-11T01:57:42;3.72;;;0.65;;
23565;SDS011;22140;48.988;8.544;2023-03-11T02:02:49;3.00;;;0.60;;
23565;SDS011;22140;48.988;8.544;2023-03-11T02:07:51;5.27;;;0.70;;
23565;SDS011;22140;48.988;8.544;2023-03-11T02:12:54;4.47;;;0.80;;
23565;SDS011;22140;48.988;8.544;2023-03-11T02:17:55;3.77;;;0.63;;
23565;SDS011;22140;48.988;8.544;2023-03-11T02:22:56;3.80;;;0.70;;
23565;SDS011;22140;48.988;8.544;2023-03-11T02:28:00;3.92;;;0.90;;
23565;SDS011;22140;48.988;8.544;2023-03-11T02:33:02;5.07;;;0.80;;
23565;SDS011;22140;48.988;8.544;2023-03-11T02:38:03;5.82;;;0.82;;
23565;SDS011;22140;48.988;8.544;2023-03-11T02:43:06;6.20;;;0.87;;
23565;SDS011;22140;48.988;8.544;2023-03-11T02:48:08;3.63;;;0.75;;
23565;SDS011;22140;48.988;8.544;2023-03-11T02:53:10;4.45;;;0.60;;
23565;SDS011;22140;48.988;8.544;2023-03-11T02:58:11;4.57;;;0.80;;
23565;SDS011;22140;48.988;8.544;2023-03-11T03:03:13;5.70;;;0.95;;
23565;SDS011;22140;48.988;8.544;2023-03-11T03:08:14;8.67;;;1.17;;
23565;SDS011;22140;48.988;8.544;2023-03-11T03:13:15;5.60;;;0.80;;
23565;SDS011;22140;48.988;8.544;2023-03-11T03:18:17;3.55;;;0.73;;
23565;SDS011;22140;48.988;8.544;2023-03-11T03:23:18;5.13;;;0.77;;
23565;SDS011;22140;48.988;8.544;2023-03-11T03:28:20;4.38;;;0.80;;
23565;SDS011;22140;48.988;8.544;2023-03-11T03:33:21;5.57;;;0.80;;
23565;SDS011;22140;48.988;8.544;2023-03-11T03:38:22;4.35;;;0.80;;
23565;SDS011;22140;48.988;8.544;2023-03-11T03:43:23;4.22;;;1.08;;
23565;SDS011;22140;48.988;8.544;2023-03-11T03:48:25;6.97;;;1.53;;
23565;SDS011;22140;48.988;8.544;2023-03-11T03:53:26;5.28;;;1.15;;
23565;SDS011;22140;48.988;8.544;2023-03-11T03:58:28;4.03;;;1.00;;
23565;SDS011;22140;48.988;8.544;2023-03-11T04:03:29;5.57;;;1.00;;
23565;SDS011;22140;48.988;8.544;2023-03-11T04:08:31;4.85;;;0.93;;
23565;SDS011;22140;48.988;8.544;2023-03-11T04:13:35;5.50;;;1.17;;
23565;SDS011;22140;48.988;8.544;2023-03-11T04:18:36;5.20;;;1.00;;
23565;SDS011;22140;48.988;8.544;2023-03-11T04:23:37;5.63;;;1.23;;
23565;SDS011;22140;48.988;8.544;2023-03-11T04:28:38;5.80;;;1.00;;
23565;SDS011;22140;48.988;8.544;2023-03-11T04:33:40;5.90;;;0.80;;
23565;SDS011;22140;48.988;8.544;2023-03-11T04:38:41;7.30;;;1.40;;
23565;SDS011;22140;48.988;8.544;2023-03-11T04:43:42;5.38;;;1.05;;
23565;SDS011;22140;48.988;8.544;2023-03-11T04:48:44;7.60;;;1.67;;
23565;SDS011;22140;48.988;8.544;2023-03-11T04:53:45;9.02;;;1.50;;
23565;SDS011;22140;48.988;8.544;2023-03-11T04:58:46;4.03;;;0.88;;
23565;SDS011;22140;48.988;8.544;2023-03-11T05:03:47;6.77;;;1.00;;
23565;SDS011;22140;48.988;8.544;2023-03-11T05:08:49;13.65;;;3.72;;
23565;SDS011;22140;48.988;8.544;2023-03-11T05:13:50;11.10;;;2.67;;
23565;SDS011;22140;48.988;8.544;2023-03-11T05:18:51;8.05;;;1.50;;
23565;SDS011;22140;48.988;8.544;2023-03-11T05:23:53;5.75;;;1.00;;
23565;SDS011;22140;48.988;8.544;2023-03-11T05:28:54;4.93;;;1.00;;
23565;SDS011;22140;48.988;8.544;2023-03-11T05:33:56;6.93;;;1.25;;
23565;SDS011;22140;48.988;8.544;2023-03-11T05:38:57;15.53;;;5.00;;
23565;SDS011;22140;48.988;8.544;2023-03-11T05:43:59;7.18;;;1.98;;
23565;SDS011;22140;48.988;8.544;2023-03-11T05:49:00;7.80;;;1.80;;
23565;SDS011;22140;48.988;8.544;2023-03-11T05:54:01;7.33;;;1.77;;
23565;SDS011;22140;48.988;8.544;2023-03-11T05:59:03;12.05;;;1.88;;
23565;SDS011;22140;48.988;8.544;2023-03-11T06:04:04;7.03;;;1.60;;
23565;SDS011;22140;48.988;8.544;2023-03-11T06:09:06;7.93;;;1.92;;
23565;SDS011;22140;48.988;8.544;2023-03-11T06:14:11;7.00;;;2.00;;
23565;SDS011;22140;48.988;8.544;2023-03-11T06:19:13;6.30;;;1.50;;
23565;SDS011;22140;48.988;8.544;2023-03-11T06:24:14;9.02;;;1.95;;
23565;SDS011;22140;48.988;8.544;2023-03-11T06:29:16;7.57;;;2.30;;
23565;SDS011;22140;48.988;8.544;2023-03-11T06:34:17;8.82;;;2.65;;
23565;SDS011;22140;48.988;8.544;2023-03-11T06:39:18;8.98;;;2.60;;
23565;SDS011;22140;48.988;8.544;2023-03-11T06:44:20;8.60;;;2.40;;
23565;SDS011;22140;48.988;8.544;2023-03-11T06:49:21;9.07;;;2.25;;
23565;SDS011;22140;48.988;8.544;2023-03-11T06:54:22;8.00;;;2.33;;
23565;SDS011;22140;48.988;8.544;2023-03-11T06:59:23;6.65;;;1.92;;
23565;SDS011;22140;48.988;8.544;2023-03-11T07:04:25;8.75;;;1.90;;
23565;SDS011;22140;48.988;8.544;2023-03-11T07:09:26;6.17;;;1.70;;
23565;SDS011;22140;48.988;8.544;2023-03-11T07:14:29;7.07;;;1.42;;
23565;SDS011;22140;48.988;8.544;2023-03-11T07:19:30;6.57;;;1.20;;
23565;SDS011;22140;48.988;8.544;2023-03-11T07:24:32;8.77;;;1.45;;
23565;SDS011;22140;48.988;8.544;2023-03-11T07:29:33;5.57;;;1.27;;
23565;SDS011;22140;48.988;8.544;2023-03-11T07:34:34;5.60;;;1.00;;
23565;SDS011;22140;48.988;8.544;2023-03-11T07:39:36;8.45;;;1.17;;
23565;SDS011;22140;48.988;8.544;2023-03-11T07:44:37;4.10;;;0.90;;
23565;SDS011;22140;48.988;8.544;2023-03-11T07:49:38;9.32;;;1.25;;
23565;SDS011;22140;48.988;8.544;2023-03-11T07:54:40;7.85;;;1.40;;
23565;SDS011;22140;48.988;8.544;2023-03-11T07:59:41;8.27;;;1.17;;
23565;SDS011;22140;48.988;8.544;2023-03-11T08:04:42;9.65;;;1.48;;
23565;SDS011;22140;48.988;8.544;2023-03-11T08:09:44;5.63;;;1.00;;
23565;SDS011;22140;48.988;8.544;2023-03-11T08:14:45;6.20;;;1.20;;
23565;SDS011;22140;48.988;8.544;2023-03-11T08:19:47;6.38;;;1.40;;
23565;SDS011;22140;48.988;8.544;2023-03-11T08:24:49;7.27;;;1.10;;
23565;SDS011;22140;48.988;8.544;2023-03-11T08:29:51;7.85;;;1.17;;
23565;SDS011;22140;48.988;8.544;2023-03-11T08:34:52;8.03;;;1.77;;
23565;SDS011;22140;48.988;8.544;2023-03-11T08:39:53;6.90;;;1.25;;
23565;SDS011;22140;48.988;8.544;2023-03-11T08:44:55;6.15;;;1.35;;
23565;SDS011;22140;48.988;8.544;2023-03-11T08:49:56;4.77;;;0.97;;
23565;SDS011;22140;48.988;8.544;2023-03-11T08:54:57;9.10;;;1.30;;
23565;SDS011;22140;48.988;8.544;2023-03-11T08:59:59;5.13;;;1.20;;
23565;SDS011;22140;48.988;8.544;2023-03-11T09:05:00;8.00;;;1.10;;
23565;SDS011;22140;48.988;8.544;2023-03-11T09:10:02;7.55;;;1.10;;
23565;SDS011;22140;48.988;8.544;2023-03-11T09:15:03;5.60;;;1.13;;
23565;SDS011;22140;48.988;8.544;2023-03-11T09:20:06;7.80;;;1.15;;
23565;SDS011;22140;48.988;8.544;2023-03-11T09:25:08;7.27;;;1.17;;
23565;SDS011;22140;48.988;8.544;2023-03-11T09:30:10;5.32;;;1.38;;
23565;SDS011;22140;48.988;8.544;2023-03-11T09:35:11;8.10;;;1.50;;
23565;SDS011;22140;48.988;8.544;2023-03-11T09:40:18;6.97;;;1.30;;
23565;SDS011;22140;48.988;8.544;2023-03-11T09:45:20;6.43;;;1.30;;
23565;SDS011;22140;48.988;8.544;2023-03-11T09:55:30;4.90;;;0.98;;
23565;SDS011;22140;48.988;8.544;2023-03-11T10:00:32;6.07;;;1.10;;
23565;SDS011;22140;48.988;8.544;2023-03-11T10:05:34;5.93;;;1.20;;
23565;SDS011;22140;48.988;8.544;2023-03-11T10:10:40;8.00;;;1.60;;
23565;SDS011;22140;48.988;8.544;2023-03-11T10:26:03;6.40;;;1.23;;
23565;SDS011;22140;48.988;8.544;2023-03-11T10:31:26;3.87;;;0.70;;
23565;SDS011;22140;48.988;8.544;2023-03-11T10:36:29;8.30;;;1.05;;
23565;SDS011;22140;48.988;8.544;2023-03-11T10:41:38;6.63;;;1.10;;
23565;SDS011;22140;48.988;8.544;2023-03-11T10:46:42;8.63;;;1.10;;
23565;SDS011;22140;48.988;8.544;2023-03-11T10:51:44;5.72;;;1.00;;
23565;SDS011;22140;48.988;8.544;2023-03-11T10:56:47;5.17;;;1.03;;
23565;SDS011;22140;48.988;8.544;2023-03-11T11:01:55;12.18;;;1.40;;
23565;SDS011;22140;48.988;8.544;2023-03-11T11:06:57;6.53;;;1.50;;
23565;SDS011;22140;48.988;8.544;2023-03-11T11:12:19;15.57;;;1.42;;
23565;SDS011;22140;48.988;8.544;2023-03-11T11:17:28;6.78;;;1.05;;
23565;SDS011;22140;48.988;8.544;2023-03-11T11:22:30;16.13;;;7.30;;
23565;SDS011;22140;48.988;8.544;2023-03-11T11:27:32;7.55;;;1.00;;
23565;SDS011;22140;48.988;8.544;2023-03-11T11:32:34;8.17;;;1.07;;
23565;SDS011;22140;48.988;8.544;2023-03-11T11:37:37;6.88;;;1.20;;
23565;SDS011;22140;48.988;8.544;2023-03-11T11:42:41;4.75;;;0.90;;
23565;SDS011;22140;48.988;8.544;2023-03-11T11:47:47;6.33;;;1.70;;
23565;SDS011;22140;48.988;8.544;2023-03-11T11:52:54;10.15;;;2.17;;
23565;SDS011;22140;48.988;8.544;2023-03-11T11:57:58;4.90;;;0.90;;
23565;SDS011;22140;48.988;8.544;2023-03-11T12:08:18;3.80;;;0.70;;
23565;SDS011;22140;48.988;8.544;2023-03-11T12:18:37;7.65;;;1.30;;
23565;SDS011;22140;48.988;8.544;2023-03-11T12:23:47;6.27;;;1.03;;
23565;SDS011;22140;48.988;8.544;2023-03-11T12:29:13;8.20;;;0.88;;
23565;SDS011;22140;48.988;8.544;2023-03-11T12:34:21;7.03;;;1.90;;
23565;SDS011;22140;48.988;8.544;2023-03-11T12:39:26;5.00;;;0.83;;
23565;SDS011;22140;48.988;8.544;2023-03-11T12:44:29;6.93;;;1.02;;
23565;SDS011;22140;48.988;8.544;2023-03-11T12:49:31;6.00;;;0.87;;
23565;SDS011;22140;48.988;8.544;2023-03-11T12:54:39;6.80;;;1.20;;
23565;SDS011;22140;48.988;8.544;2023-03-11T12:59:59;8.73;;;1.83;;
23565;SDS011;22140;48.988;8.544;2023-03-11T13:10:37;7.28;;;1.10;;
23565;SDS011;22140;48.988;8.544;2023-03-11T13:15:39;4.93;;;1.07;;
23565;SDS011;22140;48.988;8.544;2023-03-11T13:20:47;8.38;;;1.10;;
23565;SDS011;22140;48.988;8.544;2023-03-11T13:31:07;5.57;;;1.30;;
23565;SDS011;22140;48.988;8.544;2023-03-11T13:41:30;4.23;;;0.80;;
23565;SDS011;22140;48.988;8.544;2023-03-11T13:46:37;6.35;;;1.20;;
23565;SDS011;22140;48.988;8.544;2023-03-11T13:51:42;5.78;;;0.90;;
23565;SDS011;22140;48.988;8.544;2023-03-11T13:56:51;8.87;;;1.70;;
23565;SDS011;22140;48.988;8.544;2023-03-11T14:01:56;4.65;;;1.05;;
23565;SDS011;22140;48.988;8.544;2023-03-11T14:06:58;10.73;;;1.10;;
23565;SDS011;22140;48.988;8.544;2023-03-11T14:12:03;7.82;;;1.05;;
23565;SDS011;22140;48.988;8.544;2023-03-11T14:17:05;4.43;;;0.70;;
23565;SDS011;22140;48.988;8.544;2023-03-11T14:22:09;6.53;;;1.00;;
23565;SDS011;22140;48.988;8.544;2023-03-11T14:27:12;7.13;;;1.23;;
23565;SDS011;22140;48.988;8.544;2023-03-11T14:37:36;7.35;;;1.20;;
23565;SDS011;22140;48.988;8.544;2023-03-11T14:42:37;4.93;;;0.95;;
23565;SDS011;22140;48.988;8.544;2023-03-11T14:47:51;9.43;;;1.37;;
23565;SDS011;22140;48.988;8.544;2023-03-11T14:53:07;6.78;;;1.10;;
23565;SDS011;22140;48.988;8.544;2023-03-11T15:03:32;10.00;;;1.92;;
23565;SDS011;22140;48.988;8.544;2023-03-11T15:08:36;5.97;;;1.17;;
23565;SDS011;22140;48.988;8.544;2023-03-11T15:13:42;8.20;;;1.73;;
23565;SDS011;22140;48.988;8.544;2023-03-11T15:18:44;7.18;;;2.35;;
23565;SDS011;22140;48.988;8.544;2023-03-11T15:23:46;7.73;;;1.93;;
23565;SDS011;22140;48.988;8.544;2023-03-11T15:28:51;8.02;;;1.83;;
23565;SDS011;22140;48.988;8.544;2023-03-11T15:39:11;7.20;;;1.20;;
23565;SDS011;22140;48.988;8.544;2023-03-11T15:44:21;5.65;;;1.10;;
23565;SDS011;22140;48.988;8.544;2023-03-11T15:49:23;9.87;;;0.97;;
23565;SDS011;22140;48.988;8.544;2023-03-11T15:54:24;10.32;;;1.30;;
23565;SDS011;22140;48.988;8.544;2023-03-11T15:59:27;7.40;;;1.88;;
23565;SDS011;22140;48.988;8.544;2023-03-11T16:04:28;4.47;;;0.97;;
23565;SDS011;22140;48.988;8.544;2023-03-11T16:09:30;14.15;;;1.60;;
23565;SDS011;22140;48.988;8.544;2023-03-11T16:14:33;8.20;;;1.57;;
23565;SDS011;22140;48.988;8.544;2023-03-11T16:19:34;9.43;;;1.20;;
23565;SDS011;22140;48.988;8.544;2023-03-11T16:24:35;8.07;;;1.42;;
23565;SDS011;22140;48.988;8.544;2023-03-11T16:29:36;6.67;;;1.30;;
23565;SDS011;22140;48.988;8.544;2023-03-11T16:34:39;14.07;;;5.30;;
23565;SDS011;22140;48.988;8.544;2023-03-11T16:39:40;14.80;;;3.67;;
23565;SDS011;22140;48.988;8.544;2023-03-11T16:44:41;7.22;;;1.50;;
23565;SDS011;22140;48.988;8.544;2023-03-11T16:49:43;13.18;;;4.90;;
23565;SDS011;22140;48.988;8.544;2023-03-11T16:54:44;12.93;;;4.87;;
23565;SDS011;22140;48.988;8.544;2023-03-11T16:59:45;12.73;;;3.85;;
23565;SDS011;22140;48.988;8.544;2023-03-11T17:04:47;14.47;;;6.20;;
23565;SDS011;22140;48.988;8.544;2023-03-11T17:09:48;14.23;;;4.55;;
23565;SDS011;22140;48.988;8.544;2023-03-11T17:14:50;11.77;;;3.47;;
23565;SDS011;22140;48.988;8.544;2023-03-11T17:19:51;9.23;;;2.27;;
23565;SDS011;22140;48.988;8.544;2023-03-11T17:24:52;8.52;;;1.23;;
23565;SDS011;22140;48.988;8.544;2023-03-11T17:29:54;6.60;;;1.40;;
23565;SDS011;22140;48.988;8.544;2023-03-11T17:34:55;7.55;;;1.83;;
23565;SDS011;22140;48.988;8.544;2023-03-11T17:39:56;8.55;;;2.20;;
23565;SDS011;22140;48.988;8.544;2023-03-11T17:44:58;6.60;;;1.80;;
23565;SDS011;22140;48.988;8.544;2023-03-11T17:49:59;11.00;;;2.13;;
23565;SDS011;22140;48.988;8.544;2023-03-11T17:55:00;9.73;;;2.10;;
23565;SDS011;22140;48.988;8.544;2023-03-11T18:00:02;8.55;;;2.25;;
23565;SDS011;22140;48.988;8.544;2023-03-11T18:05:06;13.75;;;2.35;;
23565;SDS011;22140;48.988;8.544;2023-03-11T18:10:07;14.00;;;2.03;;
23565;SDS011;22140;48.988;8.544;2023-03-11T18:15:09;8.50;;;2.50;;
23565;SDS011;22140;48.988;8.544;2023-03-11T18:20:18;18.47;;;5.17;;
23565;SDS011;22140;48.988;8.544;2023-03-11T18:25:20;20.88;;;6.07;;
23565;SDS011;22140;48.988;8.544;2023-03-11T18:30:21;15.60;;;4.85;;
23565;SDS011;22140;48.988;8.544;2023-03-11T18:35:22;10.13;;;3.70;;
23565;SDS011;22140;48.988;8.544;2023-03-11T18:40:24;12.10;;;4.30;;
23565;SDS011;22140;48.988;8.544;2023-03-11T18:45:27;10.53;;;3.30;;
23565;SDS011;22140;48.988;8.544;2023-03-11T18:50:29;14.60;;;4.00;;
23565;SDS011;22140;48.988;8.544;2023-03-11T18:55:32;22.25;;;8.68;;
23565;SDS011;22140;48.988;8.544;2023-03-11T19:00:34;22.10;;;7.20;;
23565;SDS011;22140;48.988;8.544;2023-03-11T19:05:36;19.38;;;6.97;;
23565;SDS011;22140;48.988;8.544;2023-03-11T19:10:37;24.80;;;8.33;;
23565;SDS011;22140;48.988;8.544;2023-03-11T19:15:39;24.25;;;8.60;;
23565;SDS011;22140;48.988;8.544;2023-03-11T19:20:41;22.85;;;8.25;;
23565;SDS011;22140;48.988;8.544;2023-03-11T19:25:42;19.70;;;6.50;;
23565;SDS011;22140;48.988;8.544;2023-03-11T19:31:02;13.05;;;5.43;;
23565;SDS011;22140;48.988;8.544;2023-03-11T19:36:05;10.30;;;3.87;;
23565;SDS011;22140;48.988;8.544;2023-03-11T19:41:07;23.70;;;7.07;;
23565;SDS011;22140;48.988;8.544;2023-03-11T19:46:10;17.55;;;3.97;;
23565;SDS011;22140;48.988;8.544;2023-03-11T19:51:13;17.00;;;5.03;;
23565;SDS011;22140;48.988;8.544;2023-03-11T19:56:14;14.23;;;4.93;;
23565;SDS011;22140;48.988;8.544;2023-03-11T20:01:16;14.87;;;4.60;;
23565;SDS011;22140;48.988;8.544;2023-03-11T20:06:17;26.10;;;5.85;;
23565;SDS011;22140;48.988;8.544;2023-03-11T20:11:21;22.45;;;7.50;;
23565;SDS011;22140;48.988;8.544;2023-03-11T20:16:22;16.57;;;4.87;;
23565;SDS011;22140;48.988;8.544;2023-03-11T20:21:24;10.50;;;3.17;;
23565;SDS011;22140;48.988;8.544;2023-03-11T20:26:25;10.13;;;3.33;;
23565;SDS011;22140;48.988;8.544;2023-03-11T20:31:26;12.88;;;4.30;;
23565;SDS011;22140;48.988;8.544;2023-03-11T20:36:29;12.10;;;3.90;;
23565;SDS011;22140;48.988;8.544;2023-03-11T20:41:35;15.67;;;4.40;;
23565;SDS011;22140;48.988;8.544;2023-03-11T20:46:40;14.50;;;4.75;;
23565;SDS011;22140;48.988;8.544;2023-03-11T20:51:42;14.03;;;4.87;;
23565;SDS011;22140;48.988;8.544;2023-03-11T20:56:44;11.52;;;4.18;;
23565;SDS011;22140;48.988;8.544;2023-03-11T21:01:45;14.50;;;4.40;;
23565;SDS011;22140;48.988;8.544;2023-03-11T21:06:47;18.87;;;5.80;;
23565;SDS011;22140;48.988;8.544;2023-03-11T21:11:52;16.15;;;5.47;;
23565;SDS011;22140;48.988;8.544;2023-03-11T21:16:53;21.57;;;6.07;;
23565;SDS011;22140;48.988;8.544;2023-03-11T21:21:55;22.27;;;8.18;;
23565;SDS011;22140;48.988;8.544;2023-03-11T21:26:56;15.63;;;6.05;;
23565;SDS011;22140;48.988;8.544;2023-03-11T21:31:58;17.20;;;5.67;;
23565;SDS011;22140;48.988;8.544;2023-03-11T21:36:59;17.13;;;5.57;;
23565;SDS011;22140;48.988;8.544;2023-03-11T21:42:01;11.83;;;4.27;;
23565;SDS011;22140;48.988;8.544;2023-03-11T21:47:02;19.17;;;5.78;;
23565;SDS011;22140;48.988;8.544;2023-03-11T21:52:04;11.57;;;4.55;;
23565;SDS011;22140;48.988;8.544;2023-03-11T21:57:06;11.80;;;4.23;;
23565;SDS011;22140;48.988;8.544;2023-03-11T22:02:10;11.70;;;4.00;;
23565;SDS011;22140;48.988;8.544;2023-03-11T22:07:13;10.77;;;3.60;;
23565;SDS011;22140;48.988;8.544;2023-03-11T22:12:15;12.60;;;3.28;;
23565;SDS011;22140;48.988;8.544;2023-03-11T22:17:16;13.68;;;3.60;;
23565;SDS011;22140;48.988;8.544;2023-03-11T22:22:17;12.53;;;4.37;;
23565;SDS011;22140;48.988;8.544;2023-03-11T22:27:19;19.98;;;5.75;;
23565;SDS011;22140;48.988;8.544;2023-03-11T22:32:20;14.07;;;5.10;;
23565;SDS011;22140;48.988;8.544;2023-03-11T22:37:21;14.77;;;5.35;;
23565;SDS011;22140;48.988;8.544;2023-03-11T22:42:23;18.70;;;5.70;;
23565;SDS011;22140;48.988;8.544;2023-03-11T22:47:24;15.20;;;5.30;;
23565;SDS011;22140;48.988;8.544;2023-03-11T22:52:25;12.15;;;4.95;;
23565;SDS011;22140;48.988;8.544;2023-03-11T22:57:27;13.43;;;5.30;;
23565;SDS011;22140;48.988;8.544;2023-03-11T23:02:28;16.35;;;6.13;;
23565;SDS011;22140;48.988;8.544;2023-03-11T23:07:30;14.43;;;5.63;;
23565;SDS011;22140;48.988;8.544;2023-03-11T23:12:31;18.80;;;5.73;;
23565;SDS011;22140;48.988;8.544;2023-03-11T23:17:33;21.38;;;5.55;;
23565;SDS011;22140;48.988;8.544;2023-03-11T23:22:35;15.53;;;5.93;;
23565;SDS011;22140;48.988;8.544;2023-03-11T23:27:36;14.43;;;5.32;;
23565;SDS011;22140;48.988;8.544;2023-03-11T23:32:37;10.43;;;4.03;;
23565;SDS011;22140;48.988;8.544;2023-03-11T23:37:39;13.30;;;4.80;;
23565;SDS011;22140;48.988;8.544;2023-03-11T23:42:41;15.57;;;5.85;;
23565;SDS011;22140;48.988;8.544;2023-03-11T23:47:42;16.77;;;5.63;;
23565;SDS011;22140;48.988;8.544;2023-03-11T23:52:43;13.80;;;4.93;;
23565;SDS011;22140;48.988;8.544;2023-03-11T23:57:44;15.93;;;6.55;;
